CheckWX is a tool to help pilots better visualize weather data.  It is not intended as a substitute for an official pre-flight weather briefing.

21:22:48 UTC

KLEX METAR
Blue Grass Airport
Lexington, Kentucky, USA
Current

29 mins ago

KLEX 182054Z 27010KT 10SM SCT026 SCT035 OVC044 02/M05 A3034 RMK AO2 SLP282 T00171050 53018
Observed
Feb-18 @ 20:54 UTC
Wind
  • 270° at 10 KTS
Visibility
10 SM
Flight Rules
VFR
Cloud Levels
  • Scattered at 2,600' AGL
  • Scattered at 3,500' AGL
  • Overcast at 4,400' AGL
Temperature
C / 36°F
Dewpoint
-5°C / 23°F
Humidity
60%
Altimeter
30.34" Hg
Pressure
1028.2 hPa
Previous

1 hour ago

KLEX 181954Z 29011KT 10SM FEW028 BKN034 OVC042 01/M03 A3032 RMK AO2 SLP275 T00111033
Observed
Feb-18 @ 19:54 UTC
Wind
  • 290° at 11 KTS
Visibility
10 SM
Flight Rules
VFR
Cloud Levels
  • Few at 2,800' AGL
  • Broken at 3,400' AGL
  • Overcast at 4,200' AGL
Temperature
C / 34°F
Dewpoint
-3°C / 27°F
Humidity
75%
Altimeter
30.32" Hg
Pressure
1027.5 hPa
Previous

2 hours ago

KLEX 181854Z 28007KT 10SM FEW029 OVC039 02/M04 A3030 RMK AO2 SLP268 T00171044
Observed
Feb-18 @ 18:54 UTC
Wind
  • 280° at 7 KTS
Visibility
10 SM
Flight Rules
VFR
Cloud Levels
  • Few at 2,900' AGL
  • Overcast at 3,900' AGL
Temperature
C / 36°F
Dewpoint
-4°C / 25°F
Humidity
65%
Altimeter
30.3" Hg
Pressure
1026.8 hPa